createdAt,value
2022-09-26T00:00:45.580Z,95141.19
2022-09-26T00:01:48.455Z,95136.00
2022-09-26T00:02:50.525Z,95137.22
2022-09-26T00:03:55.395Z,95139.97
2022-09-26T00:04:57.223Z,95131.75
2022-09-26T00:06:02.078Z,95133.69
2022-09-26T00:07:03.926Z,95134.50
2022-09-26T00:08:07.993Z,95131.75
2022-09-26T00:09:10.202Z,95139.97
2022-09-26T00:10:12.963Z,95136.44
2022-09-26T00:11:17.319Z,95130.97
2022-09-26T00:12:20.142Z,95124.72
2022-09-26T00:13:21.951Z,95130.97
2022-09-26T00:14:27.326Z,95124.72
2022-09-26T00:15:30.982Z,95129.44
2022-09-26T00:16:33.980Z,95131.75
2022-09-26T00:17:35.821Z,95131.75
2022-09-26T00:18:39.336Z,95130.97
2022-09-26T00:19:42.210Z,95135.69
2022-09-26T00:20:44.168Z,95128.69
2022-09-26T00:21:47.009Z,95132.19
2022-09-26T00:22:48.837Z,95128.69
2022-09-26T00:23:52.107Z,95127.91
2022-09-26T00:24:55.037Z,95127.91
2022-09-26T00:25:58.027Z,95132.63
2022-09-26T00:27:00.845Z,95129.13
2022-09-26T00:28:02.672Z,95120.13
2022-09-26T00:29:08.542Z,95124.06
2022-09-26T00:30:11.986Z,95122.88
2022-09-26T00:31:19.501Z,95122.88
2022-09-26T00:32:21.356Z,95119.38
2022-09-26T00:33:24.947Z,95124.88
2022-09-26T00:34:26.730Z,95118.59
2022-09-26T00:35:29.494Z,95119.38
2022-09-26T00:36:37.943Z,95124.06
2022-09-26T00:37:41.506Z,95128.38
2022-09-26T00:38:43.933Z,95124.06
2022-09-26T00:39:46.725Z,95118.59
2022-09-26T00:40:49.491Z,95118.59
2022-09-26T00:41:52.608Z,95114.66
2022-09-26T00:42:54.644Z,95118.59
2022-09-26T00:43:58.437Z,95115.84
2022-09-26T00:45:00.411Z,95114.31
2022-09-26T00:46:07.704Z,95107.63
2022-09-26T00:47:22.033Z,95104.88
2022-09-26T00:48:25.506Z,95106.09
2022-09-26T00:49:31.746Z,95101.38
2022-09-26T00:50:37.261Z,95108.41
2022-09-26T00:51:43.504Z,95104.56
2022-09-26T00:52:54.151Z,95108.09
2022-09-26T00:53:56.258Z,95098.31
2022-09-26T00:55:03.334Z,95108.53
2022-09-26T00:56:10.165Z,95105.78
2022-09-26T00:57:17.928Z,95105.78
2022-09-26T00:58:25.548Z,95105.03
2022-09-26T00:59:30.977Z,95101.53
2022-09-26T01:00:34.330Z,95101.53
2022-09-26T01:01:37.759Z,95094.50
2022-09-26T01:02:43.640Z,95100.72
2022-09-26T01:03:49.162Z,95096.03
2022-09-26T01:04:52.023Z,95089.00
2022-09-26T01:05:55.002Z,95093.72
2022-09-26T01:07:01.041Z,95090.22
2022-09-26T01:08:04.305Z,95089.00
2022-09-26T01:09:09.253Z,95094.50
2022-09-26T01:10:12.190Z,95086.69
2022-09-26T01:11:17.154Z,95085.19
2022-09-26T01:12:21.139Z,95082.00
2022-09-26T01:13:24.191Z,95087.50
2022-09-26T01:14:26.137Z,95077.72
2022-09-26T01:15:30.036Z,95089.44
2022-09-26T01:16:32.080Z,95080.44
2022-09-26T01:17:35.061Z,95085.94
2022-09-26T01:18:38.386Z,95088.69
2022-09-26T01:19:51.702Z,95092.19
2022-09-26T01:21:00.530Z,95092.19
2022-09-26T01:22:27.359Z,95089.44
2022-09-26T01:24:08.293Z,95087.50
2022-09-26T01:25:21.702Z,95086.69
2022-09-26T01:27:02.743Z,95082.00
2022-09-26T01:28:17.410Z,95085.94
2022-09-26T01:30:05.033Z,95088.69
2022-09-26T01:31:22.507Z,95082.88
2022-09-26T01:32:50.497Z,95078.94
2022-09-26T01:34:01.312Z,95082.88
2022-09-26T01:35:10.866Z,95083.66
2022-09-26T01:36:34.589Z,95084.44
2022-09-26T01:37:49.265Z,95085.63
2022-09-26T01:39:03.935Z,95088.38
2022-09-26T01:40:10.785Z,95077.41
2022-09-26T01:41:29.417Z,95082.88
2022-09-26T01:42:44.310Z,95077.41
2022-09-26T01:43:55.897Z,95086.41
2022-09-26T01:45:05.189Z,95076.63
2022-09-26T01:46:25.251Z,95075.13
2022-09-26T01:47:31.643Z,95079.81
2022-09-26T01:48:40.991Z,95083.34
2022-09-26T01:49:53.412Z,95080.59
2022-09-26T01:51:03.382Z,95084.09
2022-09-26T01:52:13.431Z,95077.88
2022-09-26T01:53:21.852Z,95074.34
2022-09-26T01:54:34.556Z,95074.03
2022-09-26T01:55:40.126Z,95079.81
2022-09-26T01:56:43.873Z,95075.13
2022-09-26T01:57:53.575Z,95074.34
2022-09-26T01:59:00.653Z,95068.84
2022-09-26T02:00:08.266Z,95067.34
2022-09-26T02:01:18.361Z,95073.25
2022-09-26T02:02:26.234Z,95074.81
2022-09-26T02:03:34.237Z,95071.31
2022-09-26T02:04:41.685Z,95074.03
2022-09-26T02:05:50.811Z,95073.25
2022-09-26T02:06:58.702Z,95077.22
2022-09-26T02:08:10.039Z,95076.78
2022-09-26T02:09:17.534Z,95069.00
2022-09-26T02:10:23.359Z,95071.75
2022-09-26T02:11:27.693Z,95075.25
2022-09-26T02:12:32.831Z,95075.25
2022-09-26T02:13:45.188Z,95069.00
2022-09-26T02:14:49.472Z,95065.03
2022-09-26T02:15:57.212Z,95068.25
2022-09-26T02:17:04.969Z,95068.25
2022-09-26T02:18:14.047Z,95072.94
2022-09-26T02:19:22.525Z,95068.25
2022-09-26T02:20:29.973Z,95072.94
2022-09-26T02:21:31.934Z,95064.72
2022-09-26T02:22:35.958Z,95067.47
2022-09-26T02:23:40.067Z,95057.28
2022-09-26T02:24:42.012Z,95062.75
2022-09-26T02:25:44.994Z,95062.75
2022-09-26T02:26:46.857Z,95061.22
2022-09-26T02:27:50.536Z,95057.28
2022-09-26T02:28:52.946Z,95060.00
2022-09-26T02:29:56.540Z,95061.97
2022-09-26T02:31:02.073Z,95061.97
2022-09-26T02:32:12.879Z,95055.72
2022-09-26T02:33:15.202Z,95058.47
2022-09-26T02:34:18.340Z,95057.28
2022-09-26T02:35:39.241Z,95055.72
2022-09-26T02:36:42.671Z,95058.47
2022-09-26T02:37:44.846Z,95056.47
2022-09-26T02:38:48.317Z,95062.75
2022-09-26T02:40:13.186Z,95054.97
2022-09-26T02:41:29.011Z,95057.72
2022-09-26T02:42:36.757Z,95048.72
2022-09-26T02:43:51.180Z,95054.22
2022-09-26T02:45:06.081Z,95053.44
2022-09-26T02:46:30.440Z,95048.72
2022-09-26T02:47:47.193Z,95049.47
2022-09-26T02:49:05.423Z,95054.22
2022-09-26T02:50:40.331Z,95056.97
2022-09-26T02:51:58.561Z,95052.66
2022-09-26T02:53:14.489Z,95048.41
2022-09-26T02:54:30.307Z,95062.13
2022-09-26T02:55:39.277Z,95052.34
2022-09-26T02:56:58.135Z,95050.41
2022-09-26T02:58:09.713Z,95052.34
2022-09-26T02:59:22.497Z,95059.06
2022-09-26T03:00:31.662Z,95053.56
2022-09-26T03:01:42.014Z,95048.84
2022-09-26T03:02:55.235Z,95048.09
2022-09-26T03:04:03.259Z,95055.56
2022-09-26T03:05:12.077Z,95052.81
2022-09-26T03:06:20.813Z,95050.84
2022-09-26T03:07:30.725Z,95049.59
2022-09-26T03:08:37.869Z,95055.56
2022-09-26T03:09:43.329Z,95058.31
2022-09-26T03:10:47.241Z,95057.56
2022-09-26T03:11:51.520Z,95053.56
2022-09-26T03:12:54.888Z,95058.31
2022-09-26T03:13:58.943Z,95054.81
2022-09-26T03:15:04.719Z,95053.56
2022-09-26T03:16:10.914Z,95054.03
2022-09-26T03:17:15.556Z,95054.50
2022-09-26T03:18:21.933Z,95050.53
2022-09-26T03:19:30.126Z,95050.53
2022-09-26T03:20:34.145Z,95050.53
2022-09-26T03:21:37.448Z,95049.00
2022-09-26T03:22:42.270Z,95046.25
2022-09-26T03:23:45.545Z,95046.56
2022-09-26T03:24:48.604Z,95046.25
2022-09-26T03:26:00.484Z,95047.78
2022-09-26T03:27:05.126Z,95046.56
2022-09-26T03:28:10.504Z,95050.53
2022-09-26T03:29:13.595Z,95034.81
2022-09-26T03:30:17.516Z,95041.09
2022-09-26T03:31:31.510Z,95046.56
2022-09-26T03:32:40.745Z,95039.53
2022-09-26T03:33:43.675Z,95041.09
2022-09-26T03:34:45.563Z,95047.78
2022-09-26T03:35:48.837Z,95041.53
2022-09-26T03:36:51.703Z,95043.84
2022-09-26T03:37:53.467Z,95047.78
2022-09-26T03:38:56.410Z,95040.78
2022-09-26T03:40:17.903Z,95043.53
2022-09-26T03:41:42.185Z,95035.28
2022-09-26T03:42:52.660Z,95027.06
2022-09-26T03:43:57.244Z,95038.78
2022-09-26T03:45:02.737Z,95026.28
2022-09-26T03:46:07.524Z,95027.06
2022-09-26T03:47:10.047Z,95031.75
2022-09-26T03:48:18.688Z,95032.53
2022-09-26T03:49:20.676Z,95026.28
2022-09-26T03:50:23.486Z,95024.31
2022-09-26T03:51:26.023Z,95021.56
2022-09-26T03:52:29.665Z,95027.06
2022-09-26T03:53:32.949Z,95034.50
2022-09-26T03:54:37.269Z,95026.75
2022-09-26T03:55:39.136Z,95024.00
2022-09-26T03:56:41.955Z,95025.50
2022-09-26T03:57:43.943Z,95024.00
2022-09-26T03:58:57.977Z,95024.75
2022-09-26T04:00:00.845Z,95029.50
2022-09-26T04:01:22.192Z,95020.50
2022-09-26T04:02:24.567Z,95025.19
2022-09-26T04:03:49.956Z,95017.75
2022-09-26T04:04:53.594Z,95015.78
2022-09-26T04:05:55.378Z,95007.53
2022-09-26T04:06:59.364Z,95014.22
2022-09-26T04:08:03.031Z,95018.53
2022-09-26T04:09:06.728Z,95006.78
2022-09-26T04:10:10.691Z,95011.50
2022-09-26T04:11:15.937Z,95008.00
2022-09-26T04:12:18.095Z,95008.75
2022-09-26T04:13:49.586Z,95006.00
2022-09-26T04:14:44.398Z,95008.00
2022-09-26T04:15:54.055Z,95012.28
2022-09-26T04:16:58.248Z,95000.53
2022-09-26T04:18:08.330Z,95006.00
2022-09-26T04:19:13.039Z,95007.22
2022-09-26T04:20:15.577Z,95000.53
2022-09-26T04:21:20.075Z,95006.78
2022-09-26T04:22:24.510Z,94998.56
2022-09-26T04:23:29.004Z,94995.81
2022-09-26T04:24:30.966Z,94997.03
2022-09-26T04:25:38.704Z,94990.78
2022-09-26T04:26:42.242Z,94994.28
2022-09-26T04:27:45.069Z,94995.03
2022-09-26T04:28:49.313Z,94992.75
2022-09-26T04:29:52.314Z,94997.03
2022-09-26T04:31:04.529Z,94994.72
2022-09-26T04:32:07.634Z,94999.00
2022-09-26T04:33:23.817Z,94993.53
2022-09-26T04:34:42.492Z,94992.75
2022-09-26T04:35:45.290Z,94990.78
2022-09-26T04:36:51.274Z,94994.72
2022-09-26T04:37:53.097Z,94993.53
2022-09-26T04:38:57.016Z,94994.28
2022-09-26T04:39:58.916Z,94991.22
2022-09-26T04:41:05.283Z,94992.75
2022-09-26T04:42:07.217Z,94999.00
2022-09-26T04:43:10.017Z,94996.25
2022-09-26T04:44:12.952Z,94993.97
2022-09-26T04:45:16.544Z,94991.97
2022-09-26T04:46:24.487Z,94994.72
2022-09-26T04:47:29.305Z,94989.22
2022-09-26T04:48:51.415Z,94993.97
2022-09-26T04:49:57.003Z,94996.69
2022-09-26T04:50:59.916Z,94989.22
2022-09-26T04:52:02.017Z,94995.94
2022-09-26T04:53:06.367Z,94989.69
2022-09-26T04:54:11.603Z,94995.94
2022-09-26T04:55:17.915Z,94986.97
2022-09-26T04:56:21.624Z,94983.47
2022-09-26T04:57:24.472Z,94994.44
2022-09-26T04:58:26.898Z,94994.44
2022-09-26T04:59:29.838Z,94989.69
2022-09-26T05:00:41.107Z,94989.69
2022-09-26T05:01:44.362Z,94992.44
2022-09-26T05:02:55.444Z,94989.69
2022-09-26T05:03:58.542Z,94988.94
2022-09-26T05:05:06.785Z,94993.66
2022-09-26T05:06:11.011Z,94993.66
2022-09-26T05:07:14.251Z,94987.41
2022-09-26T05:08:18.415Z,94987.41
2022-09-26T05:09:20.641Z,94981.91
2022-09-26T05:10:31.129Z,94990.47
2022-09-26T05:11:36.792Z,94986.97
2022-09-26T05:12:42.361Z,94986.19
2022-09-26T05:13:50.187Z,94984.97
2022-09-26T05:14:56.775Z,94986.97
2022-09-26T05:16:00.953Z,94987.41
2022-09-26T05:17:03.728Z,94981.91
2022-09-26T05:18:08.786Z,94985.88
2022-09-26T05:19:12.588Z,94996.06
2022-09-26T05:20:29.128Z,94988.31
2022-09-26T05:21:35.354Z,94995.31
2022-09-26T05:22:37.159Z,94986.78
2022-09-26T05:23:57.798Z,94992.25
2022-09-26T05:25:18.167Z,94995.00
2022-09-26T05:26:24.003Z,94995.00
2022-09-26T05:27:26.137Z,94992.25
2022-09-26T05:28:29.924Z,94987.56
2022-09-26T05:29:31.740Z,94995.00
2022-09-26T05:30:39.406Z,94997.75
2022-09-26T05:31:43.488Z,94992.25
2022-09-26T05:32:48.320Z,94987.56
2022-09-26T05:33:53.824Z,94997.75
2022-09-26T05:34:57.593Z,94991.50
2022-09-26T05:36:03.046Z,94986.78
2022-09-26T05:37:05.933Z,94994.25
2022-09-26T05:38:08.085Z,94997.75
2022-09-26T05:39:32.974Z,94995.00
2022-09-26T05:40:53.314Z,94996.22
2022-09-26T05:41:59.921Z,94994.69
2022-09-26T05:43:03.796Z,94996.22
2022-09-26T05:44:06.575Z,94991.94
2022-09-26T05:45:11.137Z,95000.16
2022-09-26T05:46:14.913Z,94994.69
2022-09-26T05:47:23.375Z,94993.94
2022-09-26T05:48:26.617Z,94996.66
2022-09-26T05:49:28.418Z,94991.19
2022-09-26T05:50:31.310Z,94989.97
2022-09-26T05:51:34.615Z,94993.16
2022-09-26T05:52:38.025Z,94993.16
2022-09-26T05:53:42.545Z,94993.59
2022-09-26T05:54:44.663Z,94985.38
2022-09-26T05:56:08.602Z,94975.19
2022-09-26T05:57:32.366Z,94979.16
2022-09-26T05:58:37.961Z,94978.38
2022-09-26T05:59:51.736Z,94987.38
2022-09-26T06:01:06.496Z,94981.56
2022-09-26T06:02:20.585Z,94987.06
2022-09-26T06:03:50.215Z,94987.06
2022-09-26T06:05:20.302Z,94994.06
2022-09-26T06:07:03.361Z,94986.28
2022-09-26T06:08:05.288Z,94999.56
2022-09-26T06:09:12.306Z,94991.34
2022-09-26T06:10:46.658Z,94996.50
2022-09-26T06:11:48.618Z,94998.03
2022-09-26T06:12:52.666Z,94987.06
2022-09-26T06:13:55.729Z,94994.53
2022-09-26T06:14:58.779Z,94995.28
2022-09-26T06:16:03.589Z,94998.03
2022-09-26T06:17:06.922Z,94998.03
2022-09-26T06:18:09.611Z,94992.09
2022-09-26T06:19:12.370Z,94998.03
2022-09-26T06:20:14.761Z,94994.53
2022-09-26T06:21:20.288Z,94996.81
2022-09-26T06:22:27.196Z,94991.34
2022-09-26T06:23:30.273Z,94995.28
2022-09-26T06:24:32.660Z,94994.06
2022-09-26T06:25:36.905Z,94995.59
2022-09-26T06:26:39.225Z,94995.59
2022-09-26T06:27:42.489Z,94985.84
2022-09-26T06:28:44.604Z,94992.84
2022-09-26T06:29:48.215Z,94990.09
2022-09-26T06:30:50.040Z,94985.38
2022-09-26T06:32:15.793Z,94991.66
2022-09-26T06:33:32.573Z,94990.44
2022-09-26T06:34:51.718Z,94991.19
2022-09-26T06:36:16.009Z,94991.19
2022-09-26T06:37:18.794Z,94989.19
2022-09-26T06:38:21.968Z,94993.47
2022-09-26T06:39:30.696Z,94992.25
2022-09-26T06:40:33.650Z,94997.75
2022-09-26T06:41:36.645Z,94996.53
2022-09-26T06:42:48.552Z,94993.81
2022-09-26T06:44:03.085Z,94996.53
2022-09-26T06:45:27.559Z,94992.25
2022-09-26T06:46:50.676Z,94993.03
2022-09-26T06:48:02.362Z,94998.53
2022-09-26T06:49:07.444Z,94988.31
2022-09-26T06:50:24.464Z,94988.31
2022-09-26T06:51:32.061Z,94984.03
2022-09-26T06:52:35.715Z,94984.81
2022-09-26T06:53:40.020Z,94981.28
2022-09-26T06:54:42.956Z,94986.00
2022-09-26T06:55:47.929Z,94986.78
2022-09-26T06:56:50.856Z,94986.78
2022-09-26T06:57:54.016Z,94985.25
2022-09-26T06:58:58.311Z,94986.00
2022-09-26T07:00:10.109Z,94988.31
2022-09-26T07:01:42.262Z,94992.25
2022-09-26T07:02:52.088Z,94985.25
2022-09-26T07:04:17.200Z,94984.81
2022-09-26T07:05:26.947Z,94990.75
2022-09-26T07:06:30.319Z,94986.78
2022-09-26T07:07:32.573Z,94980.53
2022-09-26T07:09:00.811Z,94979.78
2022-09-26T07:10:19.587Z,94979.78
2022-09-26T07:11:41.877Z,94980.53
2022-09-26T07:12:49.964Z,94979.78
2022-09-26T07:13:53.030Z,94981.28
2022-09-26T07:14:58.010Z,94967.56
2022-09-26T07:16:05.680Z,94975.38
2022-09-26T07:17:24.459Z,94974.13
2022-09-26T07:18:44.528Z,94981.16
2022-09-26T07:19:53.231Z,94980.41
2022-09-26T07:21:25.414Z,94979.19
2022-09-26T07:22:39.790Z,94968.97
2022-09-26T07:23:42.684Z,94980.56
2022-09-26T07:24:46.284Z,94977.38
2022-09-26T07:25:51.927Z,94980.88
2022-09-26T07:26:53.801Z,94980.88
2022-09-26T07:27:56.626Z,94975.41
2022-09-26T07:29:08.635Z,94987.13
2022-09-26T07:30:13.779Z,94975.41
2022-09-26T07:31:26.713Z,94974.63
2022-09-26T07:33:01.057Z,94980.13
2022-09-26T07:34:25.058Z,94975.41
2022-09-26T07:35:27.253Z,94977.69
2022-09-26T07:36:30.111Z,94983.19
2022-09-26T07:37:32.273Z,94972.22
2022-09-26T07:38:35.708Z,94968.22
2022-09-26T07:39:38.514Z,94974.47
2022-09-26T07:40:43.251Z,94975.25
2022-09-26T07:41:49.700Z,94967.03
2022-09-26T07:43:15.389Z,94972.53
2022-09-26T07:45:56.977Z,94965.06
2022-09-26T07:47:17.400Z,94965.81
2022-09-26T07:48:38.334Z,94967.31
2022-09-26T07:50:14.989Z,94963.69
2022-09-26T07:51:39.087Z,94961.25
2022-09-26T07:52:48.140Z,94966.28
2022-09-26T07:53:59.096Z,94966.28
2022-09-26T07:55:23.176Z,94964.31
2022-09-26T07:56:44.955Z,94969.81
2022-09-26T07:57:57.937Z,94969.50
2022-09-26T07:59:39.602Z,94971.16
2022-09-26T08:00:58.021Z,94980.91
2022-09-26T08:02:25.770Z,94971.91
2022-09-26T08:03:29.635Z,94972.69
2022-09-26T08:04:35.098Z,94971.16
2022-09-26T08:05:38.130Z,94973.44
2022-09-26T08:06:41.146Z,94973.44
2022-09-26T08:07:44.256Z,94978.16
2022-09-26T08:08:53.625Z,94973.44
2022-09-26T08:10:20.098Z,94974.19
2022-09-26T08:11:42.371Z,94971.44
2022-09-26T08:13:05.362Z,94960.94
2022-09-26T08:14:32.385Z,94968.72
2022-09-26T08:15:56.080Z,94972.22
2022-09-26T08:17:04.839Z,94969.81
2022-09-26T08:18:07.822Z,94968.25
2022-09-26T08:19:17.481Z,94972.53
2022-09-26T08:20:20.589Z,94967.34
2022-09-26T08:21:23.941Z,94975.31
2022-09-26T08:22:28.303Z,94960.06
2022-09-26T08:23:31.233Z,94958.72
2022-09-26T08:24:58.198Z,94963.59
2022-09-26T08:26:12.150Z,94962.53
2022-09-26T08:27:25.754Z,94964.66
2022-09-26T08:28:29.227Z,94962.84
2022-09-26T08:29:32.202Z,94963.16
2022-09-26T08:30:34.422Z,94970.47
2022-09-26T08:31:39.554Z,94965.59
2022-09-26T08:32:42.738Z,94963.47
2022-09-26T08:33:44.595Z,94970.03
2022-09-26T08:34:49.169Z,94967.28
2022-09-26T08:36:25.663Z,94966.22
2022-09-26T08:37:55.968Z,94967.16
2022-09-26T08:39:14.337Z,94964.09
2022-09-26T08:40:46.069Z,94961.94
2022-09-26T08:42:42.890Z,94961.34
2022-09-26T08:44:32.728Z,94956.75
2022-09-26T08:46:32.110Z,94957.66
2022-09-26T08:48:01.829Z,94954.59
2022-09-26T08:49:27.924Z,94949.13
2022-09-26T08:50:42.713Z,94952.47
2022-09-26T08:51:49.049Z,94949.28
2022-09-26T08:52:57.872Z,94940.59
2022-09-26T08:54:06.607Z,94940.59
2022-09-26T08:55:16.855Z,94936.31
2022-09-26T08:56:21.231Z,94941.81
2022-09-26T08:57:35.165Z,94937.84
2022-09-26T08:58:40.976Z,94940.88
2022-09-26T08:59:47.875Z,94933.88
2022-09-26T09:00:58.788Z,94942.44
2022-09-26T09:02:05.169Z,94939.69
2022-09-26T09:03:29.735Z,94935.72
2022-09-26T09:04:42.886Z,94939.22
2022-09-26T09:05:49.774Z,94936.00
2022-09-26T09:06:58.856Z,94936.00
2022-09-26T09:08:07.911Z,94926.56
2022-09-26T09:09:18.722Z,94934.78
2022-09-26T09:10:47.566Z,94934.34
2022-09-26T09:12:18.542Z,94928.09
2022-09-26T09:13:42.998Z,94925.34
2022-09-26T09:15:26.136Z,94927.34
2022-09-26T09:17:10.797Z,94924.59
2022-09-26T09:18:37.407Z,94923.34
2022-09-26T09:20:11.136Z,94929.59
2022-09-26T09:21:42.009Z,94922.91
2022-09-26T09:23:24.714Z,94920.91
2022-09-26T09:24:47.341Z,94923.22
2022-09-26T09:27:52.505Z,94916.19
2022-09-26T09:29:10.724Z,94919.25
2022-09-26T09:30:22.323Z,94920.78
2022-09-26T09:31:37.919Z,94927.47
2022-09-26T09:33:02.099Z,94923.97
2022-09-26T09:34:39.378Z,94920.00
2022-09-26T09:36:04.274Z,94919.25
2022-09-26T09:37:17.154Z,94917.72
2022-09-26T09:38:51.128Z,94917.41
2022-09-26T09:40:28.454Z,94908.41
2022-09-26T09:41:40.532Z,94909.19
2022-09-26T09:42:47.068Z,94909.50
2022-09-26T09:43:54.424Z,94912.22
2022-09-26T09:45:05.764Z,94912.22
2022-09-26T09:46:17.742Z,94902.00
2022-09-26T09:47:20.735Z,94902.00
2022-09-26T09:48:28.100Z,94897.28
2022-09-26T09:49:30.674Z,94905.50
2022-09-26T09:50:44.102Z,94898.50
2022-09-26T09:51:59.743Z,94898.94
2022-09-26T09:53:11.420Z,94904.44
2022-09-26T09:54:47.813Z,94903.69
2022-09-26T09:56:02.558Z,94902.16
2022-09-26T09:57:38.055Z,94901.41
2022-09-26T09:58:57.402Z,94902.16
2022-09-26T10:00:08.553Z,94897.88
2022-09-26T10:01:36.726Z,94903.38
2022-09-26T10:02:47.136Z,94901.84
2022-09-26T10:04:03.419Z,94897.59
2022-09-26T10:05:20.117Z,94900.78
2022-09-26T10:06:45.820Z,94904.00
2022-09-26T10:07:47.646Z,94896.97
2022-09-26T10:09:39.242Z,94899.41
2022-09-26T10:11:26.146Z,94908.13
2022-09-26T10:12:35.067Z,94905.06
2022-09-26T10:14:31.117Z,94903.06
2022-09-26T10:15:40.212Z,94903.06
2022-09-26T10:17:18.494Z,94901.25
2022-09-26T10:18:27.432Z,94905.19
2022-09-26T10:19:46.295Z,94895.16
2022-09-26T10:20:53.767Z,94899.09
2022-09-26T10:21:55.656Z,94901.84
2022-09-26T10:22:58.662Z,94901.84
2022-09-26T10:24:05.473Z,94899.09
2022-09-26T10:25:25.868Z,94900.16
2022-09-26T10:26:34.637Z,94899.72
2022-09-26T10:27:40.459Z,94898.78
2022-09-26T10:28:48.086Z,94896.34
2022-09-26T10:29:57.030Z,94886.91
2022-09-26T10:31:07.837Z,94896.66
2022-09-26T10:32:26.023Z,94897.91
2022-09-26T10:33:39.967Z,94891.16
2022-09-26T10:35:05.407Z,94898.19
2022-09-26T10:36:11.349Z,94889.97
2022-09-26T10:37:24.062Z,94889.97
2022-09-26T10:38:33.068Z,94885.22
2022-09-26T10:40:07.512Z,94896.97
2022-09-26T10:41:22.920Z,94892.22
2022-09-26T10:42:32.013Z,94887.53
2022-09-26T10:43:37.981Z,94887.53
2022-09-26T10:44:57.972Z,94888.72
2022-09-26T10:46:23.762Z,94885.22
2022-09-26T10:47:59.295Z,94878.50
2022-09-26T10:49:45.374Z,94873.03
2022-09-26T10:51:29.836Z,94878.38
2022-09-26T10:52:41.306Z,94875.94
2022-09-26T10:53:45.467Z,94870.44
2022-09-26T10:54:57.342Z,94871.66
2022-09-26T10:56:05.695Z,94880.19
2022-09-26T10:57:19.345Z,94871.50
2022-09-26T10:58:27.682Z,94875.00
2022-09-26T10:59:36.199Z,94869.06
2022-09-26T11:00:42.990Z,94872.56
2022-09-26T11:01:56.428Z,94876.84
2022-09-26T11:03:01.441Z,94874.38
2022-09-26T11:04:15.809Z,94871.94
2022-09-26T11:05:56.421Z,94873.78
2022-09-26T11:07:05.548Z,94866.31
2022-09-26T11:08:17.112Z,94867.06
2022-09-26T11:10:01.972Z,94866.59
2022-09-26T11:11:27.614Z,94867.38
2022-09-26T11:12:40.070Z,94864.91
2022-09-26T11:13:47.957Z,94858.97
2022-09-26T11:14:56.874Z,94854.25
2022-09-26T11:16:01.293Z,94856.50
2022-09-26T11:17:05.546Z,94850.25
2022-09-26T11:18:21.963Z,94853.34
2022-09-26T11:19:39.360Z,94851.81
2022-09-26T11:20:48.457Z,94852.59
2022-09-26T11:21:56.324Z,94843.59
2022-09-26T11:23:07.788Z,94843.25
2022-09-26T11:25:58.158Z,94849.66
2022-09-26T11:35:07.003Z,94837.75
2022-09-26T11:36:24.372Z,94829.03
2022-09-26T11:37:45.210Z,94831.03
2022-09-26T11:38:53.815Z,94826.78
2022-09-26T11:40:16.870Z,94829.53
2022-09-26T11:41:38.901Z,94831.50
2022-09-26T11:42:59.746Z,94819.75
2022-09-26T11:44:19.240Z,94817.31
2022-09-26T11:45:54.242Z,94812.56
2022-09-26T11:47:42.243Z,94812.91
2022-09-26T11:49:06.007Z,94805.44
2022-09-26T11:50:40.269Z,94807.72
2022-09-26T11:52:04.521Z,94802.69
2022-09-26T11:53:26.638Z,94812.44
2022-09-26T11:54:58.620Z,94805.44
2022-09-26T11:56:25.007Z,94805.44
2022-09-26T11:57:38.257Z,94792.47
2022-09-26T11:58:48.016Z,94793.22
2022-09-26T12:00:06.297Z,94801.00
2022-09-26T12:01:23.087Z,94786.50
2022-09-26T12:02:44.319Z,94791.53
2022-09-26T12:04:19.466Z,94784.84
2022-09-26T12:05:31.129Z,94784.34
2022-09-26T12:06:38.790Z,94778.41
2022-09-26T12:07:49.181Z,94780.69
2022-09-26T12:09:16.810Z,94771.22
2022-09-26T12:10:31.234Z,94776.72
2022-09-26T12:11:42.532Z,94783.72
2022-09-26T12:12:57.614Z,94771.97
2022-09-26T12:14:10.099Z,94775.47
2022-09-26T12:15:23.526Z,94777.47
2022-09-26T12:16:36.532Z,94766.47
2022-09-26T12:17:50.575Z,94773.97
2022-09-26T12:19:05.152Z,94764.22
2022-09-26T12:20:26.181Z,94765.41
2022-09-26T12:22:03.859Z,94758.72
2022-09-26T12:23:14.304Z,94765.72
2022-09-26T12:24:27.172Z,94753.34
2022-09-26T12:25:41.726Z,94754.84
2022-09-26T12:26:51.683Z,94759.88
2022-09-26T12:28:06.142Z,94751.94
2022-09-26T12:29:28.014Z,94756.19
2022-09-26T12:30:35.492Z,94747.69
2022-09-26T12:32:05.774Z,94753.94
2022-09-26T12:33:37.229Z,94748.44
2022-09-26T12:34:58.196Z,94746.44
2022-09-26T12:36:09.758Z,94743.72
2022-09-26T12:37:32.060Z,94742.19
2022-09-26T12:38:56.387Z,94744.94
2022-09-26T12:40:17.991Z,94738.66
2022-09-26T12:41:37.667Z,94739.44
2022-09-26T12:42:54.554Z,94746.00
2022-09-26T12:44:12.699Z,94742.47
2022-09-26T12:45:40.557Z,94736.97
2022-09-26T12:47:17.791Z,94736.97
2022-09-26T12:48:31.149Z,94728.28
2022-09-26T12:50:01.235Z,94738.50
2022-09-26T12:51:19.860Z,94731.47
2022-09-26T12:52:35.216Z,94731.47
2022-09-26T12:53:52.644Z,94728.72
2022-09-26T12:55:09.576Z,94725.97
2022-09-26T12:56:22.232Z,94727.97
2022-09-26T12:57:32.842Z,94728.47
2022-09-26T12:58:55.302Z,94720.22
2022-09-26T13:00:13.274Z,94717.19
2022-09-26T13:01:31.081Z,94716.88
2022-09-26T13:02:52.245Z,94716.88
2022-09-26T13:04:28.439Z,94713.84
2022-09-26T13:05:49.546Z,94715.34
2022-09-26T13:07:20.603Z,94708.34
2022-09-26T13:08:34.919Z,94698.84
2022-09-26T13:09:58.911Z,94709.53
2022-09-26T13:11:17.474Z,94709.53
2022-09-26T13:12:38.891Z,94711.53
2022-09-26T13:14:14.679Z,94706.81
2022-09-26T13:15:26.565Z,94697.34
2022-09-26T13:16:40.377Z,94697.34
2022-09-26T13:17:47.782Z,94702.09
2022-09-26T13:18:53.701Z,94691.84
2022-09-26T13:20:01.369Z,94686.38
2022-09-26T13:21:09.098Z,94689.41
2022-09-26T13:22:27.607Z,94683.16
2022-09-26T13:23:35.792Z,94677.66
2022-09-26T13:24:52.353Z,94677.66
2022-09-26T13:25:59.181Z,94672.16
2022-09-26T13:27:10.550Z,94666.69
2022-09-26T13:28:17.589Z,94663.44
2022-09-26T13:29:24.076Z,94668.47
2022-09-26T13:30:35.722Z,94670.00
2022-09-26T13:31:41.292Z,94670.28
2022-09-26T13:32:54.985Z,94660.06
2022-09-26T13:34:02.692Z,94663.88
2022-09-26T13:35:13.426Z,94666.88
2022-09-26T13:36:18.733Z,94664.44
2022-09-26T13:37:36.338Z,94650.25
2022-09-26T13:38:48.873Z,94661.53
2022-09-26T13:40:00.221Z,94649.28
2022-09-26T13:41:15.793Z,94646.84
2022-09-26T13:42:25.317Z,94652.34
2022-09-26T13:43:47.437Z,94654.63
2022-09-26T13:44:59.385Z,94642.88
2022-09-26T13:46:10.741Z,94645.16
2022-09-26T13:47:22.976Z,94647.91
2022-09-26T13:48:37.075Z,94641.94
2022-09-26T13:49:53.246Z,94638.44
2022-09-26T13:51:06.334Z,94645.56
2022-09-26T13:52:19.120Z,94643.16
2022-09-26T13:53:32.327Z,94635.06
2022-09-26T13:54:55.623Z,94640.69
2022-09-26T13:56:30.353Z,94633.22
2022-09-26T13:57:39.028Z,94634.78
2022-09-26T13:58:40.882Z,94634.66
2022-09-26T13:59:54.319Z,94639.84
2022-09-26T14:01:26.767Z,94636.16
2022-09-26T14:02:30.274Z,94642.50
2022-09-26T14:03:41.620Z,94642.56
2022-09-26T14:04:44.498Z,94635.56
2022-09-26T14:05:49.956Z,94637.31
2022-09-26T14:07:28.167Z,94631.28
2022-09-26T14:08:51.267Z,94633.66
2022-09-26T14:09:59.072Z,94630.91
2022-09-26T14:11:11.960Z,94632.19
2022-09-26T14:12:34.584Z,94631.53
2022-09-26T14:13:38.497Z,94627.16
2022-09-26T14:14:46.204Z,94627.06
2022-09-26T14:16:01.338Z,94626.97
2022-09-26T14:17:22.485Z,94619.66